createdAt,value
2017-09-24T00:00:59.918Z,1008.25
2017-09-24T00:01:59.937Z,1008.25
2017-09-24T00:02:59.953Z,1008.25
2017-09-24T00:03:59.975Z,1008.25
2017-09-24T00:04:59.999Z,1008.22
2017-09-24T00:06:00.016Z,1008.25
2017-09-24T00:07:00.039Z,1008.22
2017-09-24T00:08:00.064Z,1008.22
2017-09-24T00:09:00.083Z,1008.21
2017-09-24T00:10:00.104Z,1008.20
2017-09-24T00:11:00.124Z,1008.20
2017-09-24T00:12:00.150Z,1008.20
2017-09-24T00:13:00.164Z,1008.18
2017-09-24T00:14:00.182Z,1008.21
2017-09-24T00:15:00.199Z,1008.19
2017-09-24T00:16:00.224Z,1008.21
2017-09-24T00:17:00.239Z,1008.21
2017-09-24T00:18:00.264Z,1008.19
2017-09-24T00:19:00.281Z,1008.18
2017-09-24T00:20:00.298Z,1008.16
2017-09-24T00:21:00.343Z,1008.14
2017-09-24T00:22:00.344Z,1008.19
2017-09-24T00:23:00.368Z,1008.13
2017-09-24T00:24:00.380Z,1008.17
2017-09-24T00:25:00.407Z,1008.15
2017-09-24T00:26:00.427Z,1008.11
2017-09-24T00:27:00.447Z,1008.14
2017-09-24T00:28:00.470Z,1008.15
2017-09-24T00:29:00.490Z,1008.14
2017-09-24T00:30:00.507Z,1008.14
2017-09-24T00:31:00.533Z,1008.16
2017-09-24T00:32:00.550Z,1008.17
2017-09-24T00:33:00.573Z,1008.16
2017-09-24T00:34:00.590Z,1008.17
2017-09-24T00:35:00.620Z,1008.14
2017-09-24T00:36:00.626Z,1008.16
2017-09-24T00:37:00.649Z,1008.15
2017-09-24T00:38:00.670Z,1008.14
2017-09-24T00:39:00.689Z,1008.15
2017-09-24T00:40:00.711Z,1008.14
2017-09-24T00:41:00.732Z,1008.11
2017-09-24T00:42:00.748Z,1008.13
2017-09-24T00:43:00.771Z,1008.15
2017-09-24T00:44:00.795Z,1008.12
2017-09-24T00:45:00.817Z,1008.12
2017-09-24T00:46:00.832Z,1008.11
2017-09-24T00:47:00.853Z,1008.12
2017-09-24T00:48:00.877Z,1008.14
2017-09-24T00:49:00.892Z,1008.11
2017-09-24T00:50:00.913Z,1008.14
2017-09-24T00:51:00.942Z,1008.09
2017-09-24T00:52:00.955Z,1008.12
2017-09-24T00:53:00.975Z,1008.13
2017-09-24T00:54:01.001Z,1008.10
2017-09-24T00:55:01.028Z,1008.12
2017-09-24T00:56:01.035Z,1008.12
2017-09-24T00:57:01.063Z,1008.12
2017-09-24T00:58:01.078Z,1008.11
2017-09-24T00:59:01.104Z,1008.08
2017-09-24T01:00:01.129Z,1008.09
2017-09-24T01:01:01.140Z,1008.06
2017-09-24T01:02:01.168Z,1008.06
2017-09-24T01:03:01.191Z,1008.07
2017-09-24T01:04:01.208Z,1008.04
2017-09-24T01:05:01.232Z,1008.04
2017-09-24T01:06:01.239Z,1008.05
2017-09-24T01:07:01.265Z,1008.04
2017-09-24T01:08:01.284Z,1008.03
2017-09-24T01:09:01.299Z,1008.04
2017-09-24T01:10:01.329Z,1008.05
2017-09-24T01:11:01.350Z,1008.04
2017-09-24T01:12:01.361Z,1008.05
2017-09-24T01:13:01.383Z,1008.02
2017-09-24T01:14:01.406Z,1007.99
2017-09-24T01:15:01.424Z,1008.00
2017-09-24T01:16:01.442Z,1007.96
2017-09-24T01:17:01.466Z,1007.98
2017-09-24T01:18:01.485Z,1007.99
2017-09-24T01:19:01.504Z,1007.97
2017-09-24T01:20:01.530Z,1007.97
2017-09-24T01:21:01.553Z,1007.96
2017-09-24T01:22:01.564Z,1007.96
2017-09-24T01:23:01.589Z,1007.94
2017-09-24T01:24:01.614Z,1007.93
2017-09-24T01:25:01.627Z,1007.95
2017-09-24T01:26:01.644Z,1007.98
2017-09-24T01:27:01.674Z,1007.94
2017-09-24T01:28:01.687Z,1007.95
2017-09-24T01:29:01.704Z,1007.96
2017-09-24T01:30:01.727Z,1007.96
2017-09-24T01:31:01.748Z,1007.97
2017-09-24T01:32:01.769Z,1007.97
2017-09-24T01:33:01.787Z,1007.96
2017-09-24T01:34:01.810Z,1007.96
2017-09-24T01:35:01.838Z,1007.98
2017-09-24T01:36:01.851Z,1007.98
2017-09-24T01:37:01.869Z,1008.00
2017-09-24T01:38:01.889Z,1007.99
2017-09-24T01:39:01.910Z,1007.97
2017-09-24T01:40:01.935Z,1007.97
2017-09-24T01:41:01.951Z,1007.96
2017-09-24T01:42:01.981Z,1007.98
2017-09-24T01:43:02.009Z,1007.98
2017-09-24T01:44:02.018Z,1008.00
2017-09-24T01:45:02.032Z,1007.94
2017-09-24T01:46:02.051Z,1007.93
2017-09-24T01:47:02.073Z,1007.96
2017-09-24T01:48:02.091Z,1007.94
2017-09-24T01:49:02.116Z,1007.95
2017-09-24T01:50:02.131Z,1007.92
2017-09-24T01:51:02.155Z,1007.95
2017-09-24T01:52:02.171Z,1007.94
2017-09-24T01:53:02.191Z,1007.92
2017-09-24T01:54:02.211Z,1007.91
2017-09-24T01:55:02.235Z,1007.88
2017-09-24T01:56:02.275Z,1007.90
2017-09-24T01:57:02.275Z,1007.89
2017-09-24T01:58:02.294Z,1007.92
2017-09-24T01:59:02.320Z,1007.89
2017-09-24T02:00:02.358Z,1007.89
2017-09-24T02:01:02.356Z,1007.89
2017-09-24T02:02:02.379Z,1007.85
2017-09-24T02:03:02.393Z,1007.86
2017-09-24T02:04:02.415Z,1007.91
2017-09-24T02:05:02.436Z,1007.86
2017-09-24T02:06:02.462Z,1007.86
2017-09-24T02:07:02.473Z,1007.82
2017-09-24T02:08:02.491Z,1007.82
2017-09-24T02:09:02.553Z,1007.77
2017-09-24T02:10:02.537Z,1007.80
2017-09-24T02:11:02.557Z,1007.82
2017-09-24T02:12:02.576Z,1007.80
2017-09-24T02:13:02.598Z,1007.84
2017-09-24T02:14:02.613Z,1007.83
2017-09-24T02:15:02.637Z,1007.81
2017-09-24T02:16:02.656Z,1007.79
2017-09-24T02:17:02.674Z,1007.79
2017-09-24T02:18:02.701Z,1007.78
2017-09-24T02:19:02.717Z,1007.80
2017-09-24T02:20:02.746Z,1007.84
2017-09-24T02:21:02.755Z,1007.81
2017-09-24T02:22:02.777Z,1007.85
2017-09-24T02:23:02.796Z,1007.87
2017-09-24T02:24:02.814Z,1007.85
2017-09-24T02:25:02.839Z,1007.84
2017-09-24T02:26:02.860Z,1007.83
2017-09-24T02:27:02.889Z,1007.84
2017-09-24T02:28:02.896Z,1007.83
2017-09-24T02:29:02.916Z,1007.83
2017-09-24T02:30:02.940Z,1007.78
2017-09-24T02:31:02.960Z,1007.82
2017-09-24T02:32:02.978Z,1007.83
2017-09-24T02:33:02.999Z,1007.83
2017-09-24T02:34:03.022Z,1007.83
2017-09-24T02:35:03.041Z,1007.84
2017-09-24T02:36:03.076Z,1007.85
2017-09-24T02:37:03.083Z,1007.83
2017-09-24T02:38:03.097Z,1007.86
2017-09-24T02:39:03.119Z,1007.87
2017-09-24T02:40:03.140Z,1007.87
2017-09-24T02:41:03.166Z,1007.86
2017-09-24T02:42:03.178Z,1007.85
2017-09-24T02:43:03.202Z,1007.84
2017-09-24T02:44:03.221Z,1007.86
2017-09-24T02:45:03.241Z,1007.84
2017-09-24T02:46:03.258Z,1007.82
2017-09-24T02:47:03.279Z,1007.82
2017-09-24T02:48:03.301Z,1007.81
2017-09-24T02:49:03.324Z,1007.82
2017-09-24T02:50:03.344Z,1007.80
2017-09-24T02:51:03.373Z,1007.82
2017-09-24T02:52:03.381Z,1007.82
2017-09-24T02:53:03.406Z,1007.88
2017-09-24T02:54:03.426Z,1007.83
2017-09-24T02:55:03.442Z,1007.88
2017-09-24T02:56:03.466Z,1007.84
2017-09-24T02:57:03.484Z,1007.86
2017-09-24T02:58:03.512Z,1007.85
2017-09-24T02:59:03.525Z,1007.88
2017-09-24T03:00:03.540Z,1007.88
2017-09-24T03:01:03.562Z,1007.87
2017-09-24T03:02:03.586Z,1007.90
2017-09-24T03:03:03.607Z,1007.90
2017-09-24T03:04:03.632Z,1007.86
2017-09-24T03:05:03.642Z,1007.87
2017-09-24T03:06:03.663Z,1007.89
2017-09-24T03:07:03.684Z,1007.87
2017-09-24T03:08:03.708Z,1007.89
2017-09-24T03:09:03.727Z,1007.89
2017-09-24T03:10:03.748Z,1007.86
2017-09-24T03:11:03.767Z,1007.88
2017-09-24T03:12:03.783Z,1007.88
2017-09-24T03:13:03.811Z,1007.91
2017-09-24T03:14:03.826Z,1007.91
2017-09-24T03:15:03.845Z,1007.91
2017-09-24T03:16:03.871Z,1007.91
2017-09-24T03:17:03.887Z,1007.88
2017-09-24T03:18:03.907Z,1007.85
2017-09-24T03:19:03.929Z,1007.90
2017-09-24T03:20:03.957Z,1007.89
2017-09-24T03:21:03.970Z,1007.89
2017-09-24T03:22:03.994Z,1007.88
2017-09-24T03:23:04.014Z,1007.88
2017-09-24T03:24:04.028Z,1007.91
2017-09-24T03:25:04.054Z,1007.89
2017-09-24T03:26:04.065Z,1007.87
2017-09-24T03:27:04.092Z,1007.82
2017-09-24T03:28:04.108Z,1007.79
2017-09-24T03:29:04.130Z,1007.79
2017-09-24T03:30:04.157Z,1007.78
2017-09-24T03:31:04.183Z,1007.78
2017-09-24T03:32:04.199Z,1007.77
2017-09-24T03:33:04.217Z,1007.78
2017-09-24T03:34:04.235Z,1007.80
2017-09-24T03:35:04.253Z,1007.75
2017-09-24T03:36:04.272Z,1007.75
2017-09-24T03:37:04.291Z,1007.83
2017-09-24T03:38:04.313Z,1007.83
2017-09-24T03:39:04.332Z,1007.80
2017-09-24T03:40:04.349Z,1007.86
2017-09-24T03:41:04.368Z,1007.84
2017-09-24T03:42:04.399Z,1007.84
2017-09-24T03:43:04.409Z,1007.89
2017-09-24T03:44:04.431Z,1007.86
2017-09-24T03:45:04.450Z,1007.84
2017-09-24T03:46:04.469Z,1007.87
2017-09-24T03:47:04.490Z,1007.86
2017-09-24T03:48:04.516Z,1007.88
2017-09-24T03:49:04.531Z,1007.84
2017-09-24T03:50:04.559Z,1007.85
2017-09-24T03:51:04.571Z,1007.84
2017-09-24T03:52:04.592Z,1007.83
2017-09-24T03:53:04.617Z,1007.85
2017-09-24T03:54:04.638Z,1007.82
2017-09-24T03:55:04.650Z,1007.75
2017-09-24T03:56:04.676Z,1007.80
2017-09-24T03:57:04.693Z,1007.76
2017-09-24T03:58:04.715Z,1007.76
2017-09-24T03:59:04.738Z,1007.78
2017-09-24T04:00:04.757Z,1007.81
2017-09-24T04:01:04.775Z,1007.78
2017-09-24T04:02:04.796Z,1007.78
2017-09-24T04:03:04.816Z,1007.74
2017-09-24T04:04:04.837Z,1007.77
2017-09-24T04:05:04.857Z,1007.77
2017-09-24T04:06:04.874Z,1007.76
2017-09-24T04:07:04.899Z,1007.77
2017-09-24T04:08:04.913Z,1007.74
2017-09-24T04:09:04.932Z,1007.76
2017-09-24T04:10:04.962Z,1007.75
2017-09-24T04:11:04.981Z,1007.73
2017-09-24T04:12:05.000Z,1007.75
2017-09-24T04:13:05.016Z,1007.75
2017-09-24T04:14:05.037Z,1007.76
2017-09-24T04:15:05.058Z,1007.76
2017-09-24T04:16:05.075Z,1007.77
2017-09-24T04:17:05.097Z,1007.79
2017-09-24T04:18:05.114Z,1007.83
2017-09-24T04:19:05.138Z,1007.80
2017-09-24T04:20:05.152Z,1007.82
2017-09-24T04:21:05.175Z,1007.85
2017-09-24T04:22:05.195Z,1007.87
2017-09-24T04:23:05.218Z,1007.88
2017-09-24T04:24:05.238Z,1007.87
2017-09-24T04:25:05.255Z,1007.87
2017-09-24T04:26:05.282Z,1007.88
2017-09-24T04:27:05.297Z,1007.91
2017-09-24T04:28:05.314Z,1007.90
2017-09-24T04:29:05.337Z,1007.90
2017-09-24T04:30:05.356Z,1007.91
2017-09-24T04:31:05.374Z,1007.92
2017-09-24T04:32:05.397Z,1007.95
2017-09-24T04:33:05.419Z,1007.94
2017-09-24T04:34:05.441Z,1007.92
2017-09-24T04:35:05.477Z,1007.93
2017-09-24T04:36:05.474Z,1007.97
2017-09-24T04:37:05.498Z,1007.95
2017-09-24T04:38:05.522Z,1007.97
2017-09-24T04:39:05.553Z,1007.96
2017-09-24T04:40:05.557Z,1007.95
2017-09-24T04:41:05.612Z,1007.94
2017-09-24T04:42:05.604Z,1007.95
2017-09-24T04:43:05.622Z,1007.93
2017-09-24T04:44:05.639Z,1007.97
2017-09-24T04:45:05.662Z,1007.96
2017-09-24T04:46:05.730Z,1007.96
2017-09-24T04:47:05.787Z,1007.99
2017-09-24T04:48:05.776Z,1007.99
2017-09-24T04:49:05.751Z,1008.01
2017-09-24T04:50:05.811Z,1008.00
2017-09-24T04:51:05.785Z,1008.03
2017-09-24T04:52:05.799Z,1007.98
2017-09-24T04:53:05.845Z,1007.95
2017-09-24T04:54:05.842Z,1007.96
2017-09-24T04:55:05.981Z,1007.95
2017-09-24T04:56:05.908Z,1007.94
2017-09-24T04:57:05.909Z,1007.96
2017-09-24T04:58:05.923Z,1007.96
2017-09-24T04:59:06.041Z,1007.95
2017-09-24T05:00:05.959Z,1007.98
2017-09-24T05:01:05.988Z,1008.00
2017-09-24T05:02:06.100Z,1007.98
2017-09-24T05:03:06.040Z,1008.02
2017-09-24T05:04:06.060Z,1008.01
2017-09-24T05:05:06.152Z,1008.05
2017-09-24T05:06:06.109Z,1007.99
2017-09-24T05:07:06.107Z,1008.00
2017-09-24T05:08:06.169Z,1008.00
2017-09-24T05:09:06.154Z,1008.00
2017-09-24T05:10:06.163Z,1008.01
2017-09-24T05:11:06.193Z,1007.98
2017-09-24T05:12:06.202Z,1007.99
2017-09-24T05:13:06.263Z,1007.99
2017-09-24T05:14:06.249Z,1008.02
2017-09-24T05:15:06.265Z,1008.05
2017-09-24T05:16:06.282Z,1008.03
2017-09-24T05:17:06.330Z,1008.03
2017-09-24T05:18:06.322Z,1008.01
2017-09-24T05:19:06.341Z,1008.02
2017-09-24T05:20:06.360Z,1008.06
2017-09-24T05:21:06.392Z,1008.04
2017-09-24T05:22:06.402Z,1008.07
2017-09-24T05:23:06.439Z,1008.08
2017-09-24T05:24:06.460Z,1008.11
2017-09-24T05:25:06.477Z,1008.11
2017-09-24T05:26:06.484Z,1008.13
2017-09-24T05:27:06.503Z,1008.16
2017-09-24T05:28:06.529Z,1008.13
2017-09-24T05:29:06.548Z,1008.18
2017-09-24T05:30:06.568Z,1008.13
2017-09-24T05:31:06.581Z,1008.13
2017-09-24T05:32:06.604Z,1008.11
2017-09-24T05:33:06.634Z,1008.07
2017-09-24T05:34:06.653Z,1008.04
2017-09-24T05:35:06.665Z,1008.03
2017-09-24T05:36:06.685Z,1008.03
2017-09-24T05:37:06.704Z,1008.03
2017-09-24T05:38:06.853Z,1008.06
2017-09-24T05:39:06.761Z,1008.04
2017-09-24T05:40:06.764Z,1008.04
2017-09-24T05:41:06.809Z,1008.03
2017-09-24T05:42:06.803Z,1008.06
2017-09-24T05:43:06.819Z,1008.10
2017-09-24T05:44:06.840Z,1008.12
2017-09-24T05:45:06.864Z,1008.14
2017-09-24T05:46:06.883Z,1008.14
2017-09-24T05:47:06.905Z,1008.11
2017-09-24T05:48:06.929Z,1008.12
2017-09-24T05:49:06.945Z,1008.14
2017-09-24T05:50:06.971Z,1008.14
2017-09-24T05:51:06.981Z,1008.15
2017-09-24T05:52:07.006Z,1008.17
2017-09-24T05:53:07.023Z,1008.19
2017-09-24T05:54:07.046Z,1008.21
2017-09-24T05:55:07.065Z,1008.24
2017-09-24T05:56:07.088Z,1008.23
2017-09-24T05:57:07.102Z,1008.24
2017-09-24T05:58:07.149Z,1008.25
2017-09-24T05:59:07.146Z,1008.27
2017-09-24T06:00:07.161Z,1008.24
2017-09-24T06:01:07.183Z,1008.24
2017-09-24T06:02:07.238Z,1008.28
2017-09-24T06:03:07.230Z,1008.27
2017-09-24T06:04:07.279Z,1008.27
2017-09-24T06:05:07.275Z,1008.27
2017-09-24T06:06:07.311Z,1008.32
2017-09-24T06:07:07.318Z,1008.31
2017-09-24T06:08:07.321Z,1008.32
2017-09-24T06:09:07.342Z,1008.34
2017-09-24T06:10:07.370Z,1008.32
2017-09-24T06:11:07.389Z,1008.30
2017-09-24T06:12:07.411Z,1008.29
2017-09-24T06:13:07.427Z,1008.30
2017-09-24T06:14:07.447Z,1008.30
2017-09-24T06:15:07.476Z,1008.27
2017-09-24T06:16:07.486Z,1008.32
2017-09-24T06:17:07.505Z,1008.31
2017-09-24T06:18:07.532Z,1008.32
2017-09-24T06:19:07.553Z,1008.29
2017-09-24T06:20:07.572Z,1008.26
2017-09-24T06:21:07.590Z,1008.29
2017-09-24T06:22:07.610Z,1008.28
2017-09-24T06:23:07.627Z,1008.33
2017-09-24T06:24:07.648Z,1008.38
2017-09-24T06:25:07.677Z,1008.42
2017-09-24T06:26:07.692Z,1008.44
2017-09-24T06:27:07.720Z,1008.45
2017-09-24T06:28:07.741Z,1008.41
2017-09-24T06:29:07.759Z,1008.48
2017-09-24T06:30:07.784Z,1008.43
2017-09-24T06:31:07.828Z,1008.47
2017-09-24T06:32:07.812Z,1008.46
2017-09-24T06:33:07.834Z,1008.48
2017-09-24T06:34:07.855Z,1008.47
2017-09-24T06:35:07.886Z,1008.47
2017-09-24T06:36:07.893Z,1008.54
2017-09-24T06:37:07.914Z,1008.53
2017-09-24T06:38:08.012Z,1008.51
2017-09-24T06:39:07.961Z,1008.54
2017-09-24T06:40:07.969Z,1008.52
2017-09-24T06:41:07.996Z,1008.55
2017-09-24T06:42:08.013Z,1008.55
2017-09-24T06:43:08.033Z,1008.59
2017-09-24T06:44:08.052Z,1008.55
2017-09-24T06:45:08.082Z,1008.57
2017-09-24T06:46:08.094Z,1008.59
2017-09-24T06:47:08.115Z,1008.61
2017-09-24T06:48:08.148Z,1008.63
2017-09-24T06:49:08.163Z,1008.64
2017-09-24T06:50:08.178Z,1008.69
2017-09-24T06:51:08.198Z,1008.67
2017-09-24T06:52:08.231Z,1008.71
2017-09-24T06:53:08.243Z,1008.75
2017-09-24T06:54:08.266Z,1008.75
2017-09-24T06:55:08.280Z,1008.83
2017-09-24T06:56:08.311Z,1008.87
2017-09-24T06:57:08.336Z,1008.88
2017-09-24T06:58:08.402Z,1008.87
2017-09-24T06:59:08.361Z,1008.79
2017-09-24T07:00:08.384Z,1008.79
2017-09-24T07:01:08.401Z,1008.71
2017-09-24T07:02:08.426Z,1008.76
2017-09-24T07:03:08.448Z,1008.78
2017-09-24T07:04:08.471Z,1008.80
2017-09-24T07:05:08.489Z,1008.82
2017-09-24T07:06:08.510Z,1008.79
2017-09-24T07:07:08.534Z,1008.82
2017-09-24T07:08:08.549Z,1008.80
2017-09-24T07:09:08.568Z,1008.82
2017-09-24T07:10:08.590Z,1008.85
2017-09-24T07:11:08.609Z,1008.88
2017-09-24T07:12:08.632Z,1008.94
2017-09-24T07:13:08.659Z,1008.91
2017-09-24T07:14:08.675Z,1008.88
2017-09-24T07:15:08.704Z,1008.90
2017-09-24T07:16:08.714Z,1008.90
2017-09-24T07:17:08.736Z,1008.88
2017-09-24T07:18:08.758Z,1008.90
2017-09-24T07:19:08.789Z,1008.91
2017-09-24T07:20:08.799Z,1008.89
2017-09-24T07:21:08.826Z,1008.88
2017-09-24T07:22:08.853Z,1008.87
2017-09-24T07:23:08.867Z,1008.89
2017-09-24T07:24:08.886Z,1008.88
2017-09-24T07:25:08.904Z,1008.88
2017-09-24T07:26:08.924Z,1008.87
2017-09-24T07:27:08.958Z,1008.92
2017-09-24T07:28:08.967Z,1008.89
2017-09-24T07:29:09.000Z,1008.87
2017-09-24T07:30:09.023Z,1008.86
2017-09-24T07:31:09.030Z,1008.90
2017-09-24T07:32:09.050Z,1008.89
2017-09-24T07:33:09.077Z,1008.92
2017-09-24T07:34:09.097Z,1008.90
2017-09-24T07:35:09.112Z,1008.96
2017-09-24T07:36:09.135Z,1008.99
2017-09-24T07:37:09.169Z,1008.96
2017-09-24T07:38:09.180Z,1008.98
2017-09-24T07:39:09.212Z,1009.01
2017-09-24T07:40:09.313Z,1009.06
2017-09-24T07:41:09.260Z,1009.16
2017-09-24T07:42:09.267Z,1009.29
2017-09-24T07:43:09.288Z,1009.44
2017-09-24T07:44:09.321Z,1009.62
2017-09-24T07:45:09.333Z,1009.86
2017-09-24T07:46:09.353Z,1009.68
2017-09-24T07:47:10.071Z,1009.62
2017-09-24T07:48:09.393Z,1010.09
2017-09-24T07:49:09.417Z,1010.13
2017-09-24T07:50:09.440Z,1009.77
2017-09-24T07:51:09.467Z,1010.04
2017-09-24T07:52:09.588Z,1010.19
2017-09-24T07:53:09.569Z,1010.18
2017-09-24T07:54:09.629Z,1010.34
2017-09-24T07:55:09.662Z,1010.08
2017-09-24T07:56:09.683Z,1010.06
2017-09-24T07:57:09.623Z,1009.96
2017-09-24T07:58:09.714Z,1009.83
2017-09-24T07:59:09.652Z,1009.71
2017-09-24T08:00:09.770Z,1009.53
2017-09-24T08:01:09.768Z,1009.48
2017-09-24T08:02:09.848Z,1009.59
2017-09-24T08:03:09.762Z,1009.60
2017-09-24T08:04:09.859Z,1009.68
2017-09-24T08:05:09.882Z,1009.86
2017-09-24T08:06:09.913Z,1010.20
2017-09-24T08:07:09.929Z,1010.11
2017-09-24T08:08:14.672Z,1009.91
2017-09-24T08:12:13.871Z,1009.84
2017-09-24T08:13:14.883Z,1009.90
2017-09-24T08:19:44.446Z,1009.80
2017-09-24T08:20:46.442Z,1009.63
2017-09-24T08:22:37.411Z,1009.43
2017-09-24T08:23:38.408Z,1009.47
2017-09-24T08:25:30.003Z,1009.53
2017-09-24T08:29:18.152Z,1009.64
2017-09-24T08:42:14.430Z,1009.51
2017-09-24T08:44:43.915Z,1009.53
2017-09-24T08:45:27.420Z,1009.44
2017-09-24T08:47:35.885Z,1009.34
2017-09-24T08:48:21.469Z,1009.40
2017-09-24T08:50:14.754Z,1009.34
2017-09-24T08:51:14.438Z,1009.31
2017-09-24T09:08:52.123Z,1009.46
2017-09-24T09:10:24.100Z,1009.57
2017-09-24T09:12:37.175Z,1009.47
2017-09-24T09:13:37.295Z,1009.47
2017-09-24T09:15:30.275Z,1009.33
2017-09-24T09:16:30.157Z,1009.32
2017-09-24T09:18:23.245Z,1009.25
2017-09-24T09:19:23.724Z,1009.18
2017-09-24T09:21:18.696Z,1009.12
2017-09-24T09:22:17.090Z,1009.08
2017-09-24T09:24:10.061Z,1009.07
2017-09-24T09:25:10.645Z,1009.07
2017-09-24T09:27:03.114Z,1009.03
2017-09-24T09:28:03.028Z,1009.04
2017-09-24T09:29:58.109Z,1009.07
2017-09-24T09:30:56.096Z,1009.06
2017-09-24T09:32:49.557Z,1009.10
2017-09-24T09:33:50.477Z,1009.11
2017-09-24T09:35:43.014Z,1009.11
2017-09-24T09:36:42.516Z,1009.04
2017-09-24T09:38:34.902Z,1009.16
2017-09-24T09:40:48.439Z,1009.25
2017-09-24T09:41:47.940Z,1009.18
2017-09-24T09:43:40.923Z,1009.30
2017-09-24T09:44:40.810Z,1009.34
2017-09-24T09:46:33.743Z,1009.30
2017-09-24T09:50:36.682Z,1009.06
2017-09-24T09:51:19.206Z,1009.05
2017-09-24T09:53:12.167Z,1009.01
2017-09-24T09:54:13.296Z,1009.01
2017-09-24T09:56:06.182Z,1008.97
2017-09-24T09:57:06.661Z,1008.93
2017-09-24T09:59:12.632Z,1008.94
2017-09-24T09:59:58.125Z,1008.92
2017-09-24T10:01:51.317Z,1009.01
2017-09-24T10:04:04.026Z,1009.03
2017-09-24T10:06:18.915Z,1009.01
2017-09-24T10:08:31.492Z,1008.96
2017-09-24T10:09:30.986Z,1008.96
2017-09-24T19:40:56.368Z,1008.82
2017-09-24T19:41:56.279Z,1008.81
2017-09-24T19:43:49.333Z,1008.84
2017-09-24T19:44:49.301Z,1008.79
2017-09-24T19:46:42.352Z,1008.76
2017-09-24T19:47:42.352Z,1008.79
2017-09-24T19:49:35.419Z,1008.84
2017-09-24T19:50:35.420Z,1008.80
2017-09-24T19:52:28.484Z,1008.81
2017-09-24T19:53:28.578Z,1008.81
2017-09-24T19:55:21.540Z,1008.80
2017-09-24T19:56:21.501Z,1008.83
2017-09-24T19:58:14.553Z,1008.82
2017-09-24T19:59:14.524Z,1008.85
2017-09-24T20:01:09.258Z,1008.84
2017-09-24T20:02:09.281Z,1008.83
2017-09-24T20:04:03.322Z,1008.84
2017-09-24T20:05:03.408Z,1008.79
2017-09-24T20:06:56.447Z,1008.83
2017-09-24T20:07:56.330Z,1008.84
2017-09-24T20:09:49.910Z,1008.87
2017-09-24T20:10:49.989Z,1008.86
2017-09-24T20:12:42.892Z,1008.85
2017-09-24T20:13:42.908Z,1008.79
2017-09-24T20:15:35.977Z,1008.83
2017-09-24T20:16:35.955Z,1008.79
2017-09-24T20:18:28.973Z,1008.83
2017-09-24T20:19:28.981Z,1008.81
2017-09-24T20:21:22.582Z,1008.84
2017-09-24T20:22:22.574Z,1008.85
2017-09-24T20:24:15.591Z,1008.90
2017-09-24T20:25:15.603Z,1008.91
2017-09-24T20:27:08.663Z,1008.91
2017-09-24T20:28:08.651Z,1008.91
2017-09-24T20:30:01.722Z,1008.93
2017-09-24T20:31:01.672Z,1008.91
2017-09-24T20:32:54.736Z,1008.97
2017-09-24T20:33:54.821Z,1008.97
2017-09-24T20:35:59.666Z,1008.97
2017-09-24T20:36:59.639Z,1008.97
2017-09-24T20:38:52.680Z,1008.98
2017-09-24T20:39:52.673Z,1008.96
2017-09-24T20:41:45.730Z,1008.99
2017-09-24T20:42:45.724Z,1008.99
2017-09-24T20:44:38.736Z,1009.01
2017-09-24T20:45:38.754Z,1009.04
2017-09-24T20:47:31.799Z,1009.06
2017-09-24T20:48:31.798Z,1009.07
2017-09-24T20:50:24.835Z,1009.10
2017-09-24T20:51:24.833Z,1009.07
2017-09-24T20:53:17.899Z,1009.02
2017-09-24T20:54:17.870Z,1009.04
2017-09-24T20:56:11.062Z,1008.97
2017-09-24T20:57:10.897Z,1008.98
2017-09-24T20:59:03.921Z,1008.96
2017-09-24T21:00:03.945Z,1008.92
2017-09-24T21:01:57.033Z,1008.92
2017-09-24T21:02:56.982Z,1008.95
2017-09-24T21:04:50.030Z,1008.95
2017-09-24T21:05:50.011Z,1008.96
2017-09-24T21:07:44.061Z,1008.94
2017-09-24T21:08:44.041Z,1008.96
2017-09-24T21:10:37.082Z,1008.94
2017-09-24T21:11:37.069Z,1008.91
2017-09-24T21:13:30.110Z,1008.91
2017-09-24T21:14:30.103Z,1008.94
2017-09-24T21:16:23.162Z,1008.91
2017-09-24T21:17:23.148Z,1008.93
2017-09-24T21:19:16.204Z,1008.90
2017-09-24T21:20:16.190Z,1008.93
2017-09-24T21:22:09.208Z,1008.90
2017-09-24T21:23:09.224Z,1008.90
2017-09-24T21:25:02.285Z,1008.95
2017-09-24T21:26:02.292Z,1008.94
2017-09-24T21:27:55.280Z,1008.91
2017-09-24T21:28:55.285Z,1008.95
2017-09-24T21:30:48.351Z,1008.95
2017-09-24T21:31:48.331Z,1008.94
2017-09-24T21:33:41.368Z,1008.92
2017-09-24T21:34:41.354Z,1008.95
2017-09-24T21:36:34.389Z,1008.96
2017-09-24T21:37:34.394Z,1008.96
2017-09-24T21:39:27.480Z,1008.92
2017-09-24T21:40:27.445Z,1008.95
2017-09-24T21:42:20.945Z,1008.91
2017-09-24T21:43:20.972Z,1008.90
2017-09-24T21:45:14.026Z,1008.99
2017-09-24T21:46:14.006Z,1008.99
2017-09-24T21:48:07.025Z,1008.92
2017-09-24T21:49:07.079Z,1008.95
2017-09-24T21:51:00.129Z,1008.94
2017-09-24T21:52:00.087Z,1008.91
2017-09-24T21:53:53.108Z,1008.91
2017-09-24T21:54:53.118Z,1008.92
2017-09-24T21:56:46.200Z,1008.90
2017-09-24T21:57:46.153Z,1008.90
2017-09-24T21:59:40.168Z,1008.89
2017-09-24T22:00:40.180Z,1008.87
2017-09-24T22:02:33.242Z,1008.87
2017-09-24T22:03:33.214Z,1008.87
2017-09-24T22:05:26.396Z,1008.86
2017-09-24T22:06:26.260Z,1008.81
2017-09-24T22:08:31.692Z,1008.86
2017-09-24T22:09:31.714Z,1008.86
2017-09-24T22:11:24.773Z,1008.86
2017-09-24T22:12:24.736Z,1008.92
2017-09-24T22:14:17.777Z,1008.91
2017-09-24T22:15:17.792Z,1008.92
2017-09-24T22:17:10.882Z,1008.92
2017-09-24T22:18:10.819Z,1008.91
2017-09-24T22:20:04.357Z,1008.95
2017-09-24T22:21:04.375Z,1008.87
2017-09-24T22:22:57.450Z,1008.87
2017-09-24T22:23:57.401Z,1008.90
2017-09-24T22:25:50.425Z,1008.94
2017-09-24T22:26:50.462Z,1008.92
2017-09-24T22:28:43.486Z,1008.92
2017-09-24T22:29:43.473Z,1008.91
2017-09-24T22:31:36.541Z,1008.95
2017-09-24T22:32:36.517Z,1008.89
2017-09-24T22:34:29.543Z,1008.87
2017-09-24T22:35:29.579Z,1008.89
2017-09-24T22:37:22.627Z,1008.84
2017-09-24T22:38:22.582Z,1008.83
2017-09-24T22:40:15.644Z,1008.78
2017-09-24T22:41:15.633Z,1008.78
2017-09-24T22:43:09.352Z,1008.74
2017-09-24T22:44:09.209Z,1008.70
2017-09-24T22:46:02.198Z,1008.71
2017-09-24T22:47:02.219Z,1008.66
2017-09-24T22:48:55.292Z,1008.70
2017-09-24T22:49:55.279Z,1008.67
2017-09-24T22:51:48.280Z,1008.67
2017-09-24T22:52:48.295Z,1008.63
2017-09-24T22:54:41.348Z,1008.67
2017-09-24T22:55:41.345Z,1008.66
2017-09-24T22:57:34.359Z,1008.64
2017-09-24T22:58:34.379Z,1008.67
2017-09-24T23:00:27.426Z,1008.60
2017-09-24T23:01:27.415Z,1008.61
2017-09-24T23:03:20.490Z,1008.60
2017-09-24T23:04:20.452Z,1008.59
2017-09-24T23:06:13.485Z,1008.59
2017-09-24T23:07:13.492Z,1008.59
2017-09-24T23:09:06.552Z,1008.60
2017-09-24T23:10:06.534Z,1008.60
2017-09-24T23:11:59.564Z,1008.57
2017-09-24T23:12:59.584Z,1008.60
2017-09-24T23:15:04.494Z,1008.56
2017-09-24T23:16:04.476Z,1008.52
2017-09-24T23:17:58.503Z,1008.52
2017-09-24T23:18:58.495Z,1008.52
2017-09-24T23:20:51.588Z,1008.51
2017-09-24T23:21:51.543Z,1008.50
2017-09-24T23:23:44.548Z,1008.47
2017-09-24T23:24:44.588Z,1008.44
2017-09-24T23:26:37.638Z,1008.49
2017-09-24T23:27:37.609Z,1008.43
2017-09-24T23:29:30.642Z,1008.43
2017-09-24T23:30:30.651Z,1008.46
2017-09-24T23:32:23.702Z,1008.48
2017-09-24T23:33:23.684Z,1008.46
2017-09-24T23:35:16.885Z,1008.49
2017-09-24T23:36:16.726Z,1008.47
2017-09-24T23:38:09.757Z,1008.46
2017-09-24T23:39:09.765Z,1008.46
2017-09-24T23:41:02.846Z,1008.47
2017-09-24T23:42:02.785Z,1008.44
2017-09-24T23:43:55.823Z,1008.48
2017-09-24T23:44:55.829Z,1008.44
2017-09-24T23:46:48.879Z,1008.45
2017-09-24T23:47:48.860Z,1008.44
2017-09-24T23:49:41.895Z,1008.42
2017-09-24T23:50:41.904Z,1008.42
2017-09-24T23:52:47.312Z,1008.37
2017-09-24T23:53:47.282Z,1008.39
2017-09-24T23:55:41.303Z,1008.33
2017-09-24T23:56:41.329Z,1008.33
2017-09-24T23:58:34.405Z,1008.32
2017-09-24T23:59:34.396Z,1008.33
